sensor_id;sensor_type;location;lat;lon;timestamp;pressure;altitude;pressure_sealevel;temperature;humidity
55311;BME280;41173;52.634;-8.666;2024-01-30T16:44:34;145290.84;;;5.78;100.00
55311;BME280;41173;52.634;-8.666;2024-01-30T16:46:59;145358.03;;;6.05;100.00
55311;BME280;41173;52.634;-8.666;2024-01-30T16:49:25;145388.41;;;6.17;100.00
55311;BME280;41173;52.634;-8.666;2024-01-30T16:51:50;145377.03;;;6.13;100.00
55311;BME280;41173;52.634;-8.666;2024-01-30T16:54:16;145396.03;;;6.20;100.00
55311;BME280;41173;52.634;-8.666;2024-01-30T16:56:41;145409.94;;;6.26;100.00
55311;BME280;41173;52.634;-8.666;2024-01-30T16:59:16;145393.53;;;6.19;100.00
55311;BME280;41173;52.634;-8.666;2024-01-30T17:01:41;145418.81;;;6.30;100.00
55311;BME280;41173;52.634;-8.666;2024-01-30T17:04:15;145428.97;;;6.34;100.00
55311;BME280;41173;52.634;-8.666;2024-01-30T17:06:40;145430.22;;;6.34;100.00
55311;BME280;41173;52.634;-8.666;2024-01-30T17:09:06;145470.78;;;6.51;100.00
55311;BME280;41173;52.634;-8.666;2024-01-30T17:11:32;145454.31;;;6.44;100.00
55311;BME280;41173;52.634;-8.666;2024-01-30T17:13:58;145472.06;;;6.51;100.00
55311;BME280;41173;52.634;-8.666;2024-01-30T17:16:24;145477.13;;;6.53;100.00
55311;BME280;41173;52.634;-8.666;2024-01-30T17:18:49;145468.25;;;6.50;100.00
55311;BME280;41173;52.634;-8.666;2024-01-30T17:21:19;145454.31;;;6.44;100.00
55311;BME280;41173;52.634;-8.666;2024-01-30T17:23:45;145472.06;;;6.51;100.00
55311;BME280;41173;52.634;-8.666;2024-01-30T17:26:10;145477.13;;;6.53;100.00
55311;BME280;41173;52.634;-8.666;2024-01-30T17:28:36;145477.13;;;6.53;100.00
55311;BME280;41173;52.634;-8.666;2024-01-30T17:31:01;145474.59;;;6.52;100.00
55311;BME280;41173;52.634;-8.666;2024-01-30T17:33:27;145469.50;;;6.50;100.00
55311;BME280;41173;52.634;-8.666;2024-01-30T17:35:53;145464.44;;;6.48;100.00
55311;BME280;41173;52.634;-8.666;2024-01-30T17:38:18;145467.00;;;6.49;100.00
55311;BME280;41173;52.634;-8.666;2024-01-30T17:40:43;145454.31;;;6.44;100.00
55311;BME280;41173;52.634;-8.666;2024-01-30T17:43:09;145446.72;;;6.41;100.00
55311;BME280;41173;52.634;-8.666;2024-01-30T17:45:34;145435.28;;;6.36;100.00
55311;BME280;41173;52.634;-8.666;2024-01-30T17:48:02;145450.50;;;6.43;100.00
55311;BME280;41173;52.634;-8.666;2024-01-30T17:50:28;145436.59;;;6.37;100.00
55311;BME280;41173;52.634;-8.666;2024-01-30T17:52:54;145440.41;;;6.38;100.00
55311;BME280;41173;52.634;-8.666;2024-01-30T17:55:20;145415.06;;;6.28;100.00
55311;BME280;41173;52.634;-8.666;2024-01-30T17:57:45;145392.22;;;6.19;100.00
55311;BME280;41173;52.634;-8.666;2024-01-30T18:00:11;145363.09;;;6.07;100.00
55311;BME280;41173;52.634;-8.666;2024-01-30T18:02:36;145377.03;;;6.13;100.00
55311;BME280;41173;52.634;-8.666;2024-01-30T18:05:02;145370.69;;;6.10;100.00
55311;BME280;41173;52.634;-8.666;2024-01-30T18:07:30;145368.19;;;6.09;100.00
55311;BME280;41173;52.634;-8.666;2024-01-30T18:09:56;145345.34;;;6.00;100.00
55311;BME280;41173;52.634;-8.666;2024-01-30T18:12:21;145337.75;;;5.97;100.00
55311;BME280;41173;52.634;-8.666;2024-01-30T18:14:46;145358.03;;;6.05;100.00
55311;BME280;41173;52.634;-8.666;2024-01-30T18:17:13;145359.31;;;6.06;100.00
55311;BME280;41173;52.634;-8.666;2024-01-30T18:19:38;145336.50;;;5.96;100.00
55311;BME280;41173;52.634;-8.666;2024-01-30T18:22:04;145330.13;;;5.94;100.00
55311;BME280;41173;52.634;-8.666;2024-01-30T18:24:29;145333.94;;;5.95;100.00
55311;BME280;41173;52.634;-8.666;2024-01-30T18:26:55;145358.03;;;6.05;100.00
55311;BME280;41173;52.634;-8.666;2024-01-30T18:29:21;145352.97;;;6.03;100.00
55311;BME280;41173;52.634;-8.666;2024-01-30T18:31:47;145356.78;;;6.05;100.00
55311;BME280;41173;52.634;-8.666;2024-01-30T18:34:12;145345.34;;;6.00;100.00
55311;BME280;41173;52.634;-8.666;2024-01-30T18:36:39;145341.56;;;5.98;100.00
55311;BME280;41173;52.634;-8.666;2024-01-30T18:39:07;145347.91;;;6.01;100.00
55311;BME280;41173;52.634;-8.666;2024-01-30T18:41:33;145347.91;;;6.01;100.00
55311;BME280;41173;52.634;-8.666;2024-01-30T18:43:58;145375.75;;;6.12;100.00
55311;BME280;41173;52.634;-8.666;2024-01-30T18:46:24;145383.34;;;6.15;100.00
55311;BME280;41173;52.634;-8.666;2024-01-30T18:48:49;145377.03;;;6.13;100.00
55311;BME280;41173;52.634;-8.666;2024-01-30T18:51:15;145397.28;;;6.21;100.00
55311;BME280;41173;52.634;-8.666;2024-01-30T18:53:43;145370.69;;;6.10;100.00
55311;BME280;41173;52.634;-8.666;2024-01-30T18:56:09;145370.69;;;6.10;100.00
55311;BME280;41173;52.634;-8.666;2024-01-30T18:58:34;145349.16;;;6.01;100.00
55311;BME280;41173;52.634;-8.666;2024-01-30T19:01:00;145335.25;;;5.96;100.00
55311;BME280;41173;52.634;-8.666;2024-01-30T19:03:25;145326.34;;;5.92;100.00
55311;BME280;41173;52.634;-8.666;2024-01-30T19:05:51;145342.84;;;5.99;100.00
55311;BME280;41173;52.634;-8.666;2024-01-30T19:08:17;145336.50;;;5.96;100.00
55311;BME280;41173;52.634;-8.666;2024-01-30T19:10:43;145331.38;;;5.94;100.00
55311;BME280;41173;52.634;-8.666;2024-01-30T19:13:09;145351.72;;;6.02;100.00
55311;BME280;41173;52.634;-8.666;2024-01-30T19:15:35;145332.63;;;5.95;100.00
55311;BME280;41173;52.634;-8.666;2024-01-30T19:18:00;145325.09;;;5.92;100.00
55311;BME280;41173;52.634;-8.666;2024-01-30T19:20:27;145314.91;;;5.88;100.00
55311;BME280;41173;52.634;-8.666;2024-01-30T19:22:52;145325.09;;;5.92;100.00
55311;BME280;41173;52.634;-8.666;2024-01-30T19:25:18;145333.94;;;5.95;100.00
55311;BME280;41173;52.634;-8.666;2024-01-30T19:27:44;145327.59;;;5.93;100.00
55311;BME280;41173;52.634;-8.666;2024-01-30T19:30:10;145335.25;;;5.96;100.00
55311;BME280;41173;52.634;-8.666;2024-01-30T19:32:35;145313.66;;;5.87;100.00
55311;BME280;41173;52.634;-8.666;2024-01-30T19:35:02;145311.13;;;5.86;100.00
55311;BME280;41173;52.634;-8.666;2024-01-30T19:37:28;145322.53;;;5.91;100.00
55311;BME280;41173;52.634;-8.666;2024-01-30T19:39:56;145327.59;;;5.93;100.00
55311;BME280;41173;52.634;-8.666;2024-01-30T19:42:21;145292.13;;;5.78;100.00
55311;BME280;41173;52.634;-8.666;2024-01-30T19:44:47;145314.91;;;5.88;100.00
55311;BME280;41173;52.634;-8.666;2024-01-30T19:47:12;145314.91;;;5.88;100.00
55311;BME280;41173;52.634;-8.666;2024-01-30T19:49:39;145301.00;;;5.82;100.00
55311;BME280;41173;52.634;-8.666;2024-01-30T19:52:05;145302.25;;;5.82;100.00
55311;BME280;41173;52.634;-8.666;2024-01-30T19:54:33;145276.94;;;5.72;100.00
55311;BME280;41173;52.634;-8.666;2024-01-30T19:56:58;145294.66;;;5.79;100.00
55311;BME280;41173;52.634;-8.666;2024-01-30T19:59:26;145279.47;;;5.73;100.00
55311;BME280;41173;52.634;-8.666;2024-01-30T20:01:52;145254.16;;;5.63;100.00
55311;BME280;41173;52.634;-8.666;2024-01-30T20:04:17;145259.19;;;5.65;100.00
55311;BME280;41173;52.634;-8.666;2024-01-30T20:06:42;145263.00;;;5.67;100.00
55311;BME280;41173;52.634;-8.666;2024-01-30T20:09:08;145278.22;;;5.73;100.00
55311;BME280;41173;52.634;-8.666;2024-01-30T20:11:33;145289.59;;;5.77;100.00
55311;BME280;41173;52.634;-8.666;2024-01-30T20:13:59;145287.09;;;5.76;100.00
55311;BME280;41173;52.634;-8.666;2024-01-30T20:16:24;145278.22;;;5.73;100.00
55311;BME280;41173;52.634;-8.666;2024-01-30T20:18:50;145271.88;;;5.70;100.00
55311;BME280;41173;52.634;-8.666;2024-01-30T20:21:15;145255.41;;;5.63;100.00
55311;BME280;41173;52.634;-8.666;2024-01-30T20:23:41;145261.75;;;5.66;100.00
55311;BME280;41173;52.634;-8.666;2024-01-30T20:26:06;145254.16;;;5.63;100.00
55311;BME280;41173;52.634;-8.666;2024-01-30T20:28:32;145246.53;;;5.60;100.00
55311;BME280;41173;52.634;-8.666;2024-01-30T20:30:57;145281.97;;;5.74;100.00
55311;BME280;41173;52.634;-8.666;2024-01-30T20:33:23;145274.41;;;5.71;100.00
55311;BME280;41173;52.634;-8.666;2024-01-30T20:35:49;145256.66;;;5.64;100.00
55311;BME280;41173;52.634;-8.666;2024-01-30T20:38:15;145271.88;;;5.70;100.00
55311;BME280;41173;52.634;-8.666;2024-01-30T20:40:41;145261.75;;;5.66;100.00
55311;BME280;41173;52.634;-8.666;2024-01-30T20:43:07;145244.03;;;5.59;100.00
55311;BME280;41173;52.634;-8.666;2024-01-30T20:45:32;145255.41;;;5.63;100.00
55311;BME280;41173;52.634;-8.666;2024-01-30T20:47:58;145251.59;;;5.62;100.00
55311;BME280;41173;52.634;-8.666;2024-01-30T20:50:23;145259.19;;;5.65;100.00
55311;BME280;41173;52.634;-8.666;2024-01-30T20:52:49;145203.50;;;5.42;100.00
55311;BME280;41173;52.634;-8.666;2024-01-30T20:55:14;145237.69;;;5.56;100.00
55311;BME280;41173;52.634;-8.666;2024-01-30T20:57:40;145240.22;;;5.57;100.00
55311;BME280;41173;52.634;-8.666;2024-01-30T21:00:07;145263.00;;;5.67;100.00
55311;BME280;41173;52.634;-8.666;2024-01-30T21:02:34;145252.91;;;5.62;100.00
55311;BME280;41173;52.634;-8.666;2024-01-30T21:05:00;145255.41;;;5.63;100.00
55311;BME280;41173;52.634;-8.666;2024-01-30T21:07:25;145227.56;;;5.52;100.00
55311;BME280;41173;52.634;-8.666;2024-01-30T21:09:51;145197.19;;;5.40;100.00
55311;BME280;41173;52.634;-8.666;2024-01-30T21:12:17;145246.53;;;5.60;100.00
55311;BME280;41173;52.634;-8.666;2024-01-30T21:14:42;145246.53;;;5.60;100.00
55311;BME280;41173;52.634;-8.666;2024-01-30T21:17:07;145244.03;;;5.59;100.00
55311;BME280;41173;52.634;-8.666;2024-01-30T21:19:33;145230.06;;;5.53;100.00
55311;BME280;41173;52.634;-8.666;2024-01-30T21:21:58;145241.50;;;5.58;100.00
55311;BME280;41173;52.634;-8.666;2024-01-30T21:24:24;145232.63;;;5.54;100.00
55311;BME280;41173;52.634;-8.666;2024-01-30T21:26:49;145230.06;;;5.53;100.00
55311;BME280;41173;52.634;-8.666;2024-01-30T21:29:14;145232.63;;;5.54;100.00
55311;BME280;41173;52.634;-8.666;2024-01-30T21:31:44;145217.41;;;5.48;100.00
55311;BME280;41173;52.634;-8.666;2024-01-30T21:34:10;145212.34;;;5.46;100.00
55311;BME280;41173;52.634;-8.666;2024-01-30T21:36:35;145226.28;;;5.52;100.00
55311;BME280;41173;52.634;-8.666;2024-01-30T21:39:02;145216.16;;;5.47;100.00
55311;BME280;41173;52.634;-8.666;2024-01-30T21:41:28;145204.75;;;5.43;100.00
55311;BME280;41173;52.634;-8.666;2024-01-30T21:43:54;145214.91;;;5.47;100.00
55311;BME280;41173;52.634;-8.666;2024-01-30T21:46:27;145225.03;;;5.51;100.00
55311;BME280;41173;52.634;-8.666;2024-01-30T21:48:53;145218.72;;;5.49;100.00
55311;BME280;41173;52.634;-8.666;2024-01-30T21:51:19;145237.69;;;5.56;100.00
55311;BME280;41173;52.634;-8.666;2024-01-30T21:53:44;145242.75;;;5.58;100.00
55311;BME280;41173;52.634;-8.666;2024-01-30T21:56:10;145246.53;;;5.60;100.00
55311;BME280;41173;52.634;-8.666;2024-01-30T21:58:35;145244.03;;;5.59;100.00
55311;BME280;41173;52.634;-8.666;2024-01-30T22:01:01;145238.94;;;5.57;100.00
55311;BME280;41173;52.634;-8.666;2024-01-30T22:03:26;145249.09;;;5.61;100.00
55311;BME280;41173;52.634;-8.666;2024-01-30T22:05:51;145241.50;;;5.58;100.00
55311;BME280;41173;52.634;-8.666;2024-01-30T22:08:17;145249.09;;;5.61;100.00
55311;BME280;41173;52.634;-8.666;2024-01-30T22:10:42;145269.31;;;5.69;100.00
55311;BME280;41173;52.634;-8.666;2024-01-30T22:13:08;145246.53;;;5.60;100.00
55311;BME280;41173;52.634;-8.666;2024-01-30T22:15:34;145249.09;;;5.61;100.00
55311;BME280;41173;52.634;-8.666;2024-01-30T22:18:02;145242.75;;;5.58;100.00
55311;BME280;41173;52.634;-8.666;2024-01-30T22:20:28;145245.28;;;5.59;100.00
55311;BME280;41173;52.634;-8.666;2024-01-30T22:22:53;145236.44;;;5.56;100.00
55311;BME280;41173;52.634;-8.666;2024-01-30T22:25:18;145259.19;;;5.65;100.00
55311;BME280;41173;52.634;-8.666;2024-01-30T22:27:44;145249.09;;;5.61;100.00
55311;BME280;41173;52.634;-8.666;2024-01-30T22:30:10;145266.81;;;5.68;100.00
55311;BME280;41173;52.634;-8.666;2024-01-30T22:32:36;145269.31;;;5.69;100.00
55311;BME280;41173;52.634;-8.666;2024-01-30T22:35:02;145257.94;;;5.64;100.00
55311;BME280;41173;52.634;-8.666;2024-01-30T22:37:28;145250.34;;;5.61;100.00
55311;BME280;41173;52.634;-8.666;2024-01-30T22:39:53;145245.28;;;5.59;100.00
55311;BME280;41173;52.634;-8.666;2024-01-30T22:42:19;145257.94;;;5.64;100.00
55311;BME280;41173;52.634;-8.666;2024-01-30T22:44:44;145244.03;;;5.59;100.00
55311;BME280;41173;52.634;-8.666;2024-01-30T22:47:09;145259.19;;;5.65;100.00
55311;BME280;41173;52.634;-8.666;2024-01-30T22:49:35;145259.19;;;5.65;100.00
55311;BME280;41173;52.634;-8.666;2024-01-30T22:52:00;145273.13;;;5.71;100.00
55311;BME280;41173;52.634;-8.666;2024-01-30T22:54:26;145269.31;;;5.69;100.00
55311;BME280;41173;52.634;-8.666;2024-01-30T22:56:51;145280.72;;;5.74;100.00
55311;BME280;41173;52.634;-8.666;2024-01-30T22:59:16;145271.88;;;5.70;100.00
55311;BME280;41173;52.634;-8.666;2024-01-30T23:01:42;145288.34;;;5.77;100.00
55311;BME280;41173;52.634;-8.666;2024-01-30T23:04:08;145281.97;;;5.74;100.00
55311;BME280;41173;52.634;-8.666;2024-01-30T23:06:34;145287.09;;;5.76;100.00
55311;BME280;41173;52.634;-8.666;2024-01-30T23:08:59;145309.88;;;5.86;100.00
55311;BME280;41173;52.634;-8.666;2024-01-30T23:11:25;145301.00;;;5.82;100.00
55311;BME280;41173;52.634;-8.666;2024-01-30T23:13:50;145321.28;;;5.90;100.00
55311;BME280;41173;52.634;-8.666;2024-01-30T23:16:16;145318.72;;;5.89;100.00
55311;BME280;41173;52.634;-8.666;2024-01-30T23:18:41;145294.66;;;5.79;100.00
55311;BME280;41173;52.634;-8.666;2024-01-30T23:21:06;145302.25;;;5.82;100.00
55311;BME280;41173;52.634;-8.666;2024-01-30T23:23:32;145321.28;;;5.90;100.00
55311;BME280;41173;52.634;-8.666;2024-01-30T23:25:57;145318.72;;;5.89;100.00
55311;BME280;41173;52.634;-8.666;2024-01-30T23:28:23;145326.34;;;5.92;100.00
